Time;durP1;ratioP1;P1;durP2;ratioP2;P2;SDS_P1;SDS_P2;PMS_P1;PMS_P2;Temp;Humidity;BMP_temperature;BMP_pressure;BME280_temperature;BME280_humidity;BME280_pressure;Samples;Min_cycle;Max_cycle;Signal;HPM_P1;HPM_P2
2022/04/20 00:00:52;;;;;;;9.18;4.70;;;9.20;89.30;;;;;;5054678;28;20097;-51
2022/04/20 00:03:17;;;;;;;8.00;4.20;;;9.10;89.50;;;;;;5057606;28;20036;-50
2022/04/20 00:05:43;;;;;;;11.43;4.88;;;9.10;89.00;;;;;;5062582;28;20110;-48
2022/04/20 00:08:08;;;;;;;8.10;4.80;;;9.00;89.30;;;;;;5066305;28;20052;-48
2022/04/20 00:10:34;;;;;;;9.93;4.63;;;9.00;88.70;;;;;;5054269;28;20036;-48
2022/04/20 00:13:00;;;;;;;12.43;5.03;;;9.00;88.70;;;;;;5062225;28;20049;-48
2022/04/20 00:15:25;;;;;;;8.52;5.00;;;8.90;88.90;;;;;;5054348;28;20041;-47
2022/04/20 00:17:51;;;;;;;10.27;4.60;;;9.00;87.60;;;;;;5060528;28;20405;-48
2022/04/20 00:20:17;;;;;;;9.07;4.55;;;8.90;88.60;;;;;;5065374;28;20410;-48
2022/04/20 00:22:43;;;;;;;7.18;4.45;;;8.80;88.40;;;;;;5066305;28;20143;-48
2022/04/20 00:25:09;;;;;;;7.40;4.43;;;8.80;88.80;;;;;;5048331;28;20536;-48
2022/04/20 00:27:36;;;;;;;11.77;4.93;;;8.70;88.60;;;;;;5070399;28;20032;-48
2022/04/20 00:30:06;;;;;;;12.98;4.72;;;8.70;88.20;;;;;;5041280;28;20045;-48
2022/04/20 00:32:32;;;;;;;9.55;4.75;;;8.70;88.00;;;;;;5057455;28;20050;-48
2022/04/20 00:34:58;;;;;;;10.60;4.22;;;8.70;87.60;;;;;;5062130;28;20076;-48
2022/04/20 00:37:24;;;;;;;7.13;4.00;;;8.70;87.90;;;;;;5053694;28;20076;-48
2022/04/20 00:39:50;;;;;;;8.25;4.07;;;8.70;88.00;;;;;;5053846;28;20033;-48
2022/04/20 00:42:16;;;;;;;11.05;4.70;;;8.70;87.70;;;;;;5063168;28;20045;-48
2022/04/20 00:44:42;;;;;;;8.95;4.07;;;8.70;88.20;;;;;;5065818;28;20443;-48
2022/04/20 00:47:09;;;;;;;10.57;4.18;;;8.60;88.90;;;;;;5072751;28;20550;-49
2022/04/20 00:49:35;;;;;;;9.88;4.45;;;8.70;87.40;;;;;;5060126;28;20384;-50
2022/04/20 00:52:03;;;;;;;8.15;4.22;;;8.70;86.90;;;;;;5064197;28;20076;-49
2022/04/20 00:54:28;;;;;;;8.95;4.85;;;8.60;87.40;;;;;;5073297;28;20032;-49
2022/04/20 00:56:54;;;;;;;6.88;4.28;;;8.60;87.70;;;;;;5072731;28;20104;-49
2022/04/20 00:59:23;;;;;;;9.60;4.85;;;8.50;87.70;;;;;;5056060;28;20438;-47
2022/04/20 01:01:51;;;;;;;9.10;4.68;;;8.50;88.30;;;;;;5053275;28;20579;-46
2022/04/20 01:04:16;;;;;;;8.07;5.05;;;8.40;88.40;;;;;;5065639;28;20032;-47
2022/04/20 01:06:42;;;;;;;9.05;4.80;;;8.50;88.30;;;;;;5069480;28;20089;-46
2022/04/20 01:09:08;;;;;;;8.32;5.03;;;8.40;88.10;;;;;;5057093;28;20439;-48
2022/04/20 01:11:34;;;;;;;8.48;4.45;;;8.40;88.70;;;;;;5071627;28;20048;-47
2022/04/20 01:14:01;;;;;;;9.95;4.60;;;8.40;89.00;;;;;;5066031;28;20086;-48
2022/04/20 01:16:26;;;;;;;7.63;4.28;;;8.40;88.80;;;;;;5061235;28;20037;-47
2022/04/20 01:18:53;;;;;;;8.55;4.78;;;8.30;89.00;;;;;;5056784;28;20036;-51
2022/04/20 01:21:19;;;;;;;7.93;4.90;;;8.40;88.20;;;;;;5063044;28;20055;-51
2022/04/20 01:23:44;;;;;;;7.05;4.65;;;8.40;88.00;;;;;;5063359;28;20123;-50
2022/04/20 01:26:11;;;;;;;7.85;4.85;;;8.30;89.00;;;;;;5063832;28;20549;-48
2022/04/20 01:28:38;;;;;;;8.80;5.22;;;8.30;89.30;;;;;;5060379;28;20043;-51
2022/04/20 01:31:04;;;;;;;9.80;4.63;;;8.30;89.70;;;;;;5042436;28;20033;-49
2022/04/20 01:33:30;;;;;;;10.40;4.78;;;8.40;89.40;;;;;;5072029;28;20132;-51
2022/04/20 01:35:56;;;;;;;10.00;5.45;;;8.30;89.60;;;;;;5071330;28;20120;-51
2022/04/20 01:38:22;;;;;;;12.18;4.80;;;8.20;89.80;;;;;;5054651;28;20029;-48
2022/04/20 01:40:47;;;;;;;9.45;4.53;;;8.20;90.10;;;;;;5069492;28;20028;-51
2022/04/20 01:43:13;;;;;;;8.05;4.63;;;8.20;90.20;;;;;;5070286;28;20037;-47
2022/04/20 01:45:39;;;;;;;9.90;5.30;;;8.20;90.30;;;;;;5071444;28;20451;-48
2022/04/20 01:48:06;;;;;;;8.50;4.55;;;8.20;90.10;;;;;;5063969;28;20512;-47
2022/04/20 01:50:31;;;;;;;7.68;4.50;;;8.10;90.50;;;;;;5053351;28;20045;-50
2022/04/20 01:52:57;;;;;;;8.70;5.05;;;8.10;90.80;;;;;;5059055;28;20382;-47
2022/04/20 01:55:23;;;;;;;12.00;5.47;;;8.10;90.60;;;;;;5060308;28;20056;-47
2022/04/20 01:57:48;;;;;;;10.50;5.28;;;8.10;90.70;;;;;;5066017;28;20037;-47
2022/04/20 02:00:16;;;;;;;10.45;5.30;;;8.10;90.80;;;;;;5064161;28;20041;-48
2022/04/20 02:02:42;;;;;;;11.85;5.00;;;8.00;90.90;;;;;;5060536;28;20037;-48
2022/04/20 02:05:10;;;;;;;11.18;5.10;;;8.00;91.30;;;;;;5064539;28;20052;-48
2022/04/20 02:07:36;;;;;;;8.77;4.88;;;7.90;91.40;;;;;;5062931;28;20059;-48
2022/04/20 02:10:03;;;;;;;8.32;5.15;;;8.00;91.50;;;;;;5071552;28;20516;-50
2022/04/20 02:12:29;;;;;;;15.25;5.57;;;7.90;91.50;;;;;;5061913;28;20674;-48
2022/04/20 02:14:55;;;;;;;8.20;4.90;;;7.90;91.60;;;;;;5058004;28;20037;-48
2022/04/20 02:17:21;;;;;;;8.30;5.30;;;7.90;91.90;;;;;;5051815;28;20043;-48
2022/04/20 02:19:46;;;;;;;10.82;5.53;;;7.90;91.70;;;;;;5052008;28;20036;-49
2022/04/20 02:22:12;;;;;;;8.45;5.00;;;7.90;91.70;;;;;;5028688;28;20497;-50
2022/04/20 02:24:37;;;;;;;11.63;5.68;;;7.90;92.10;;;;;;5071649;28;20044;-48
2022/04/20 02:27:03;;;;;;;9.52;5.78;;;7.80;92.20;;;;;;5052044;28;20037;-48
2022/04/20 02:29:29;;;;;;;9.18;5.20;;;7.80;92.00;;;;;;5053018;28;20045;-48
2022/04/20 02:31:56;;;;;;;8.40;4.93;;;7.80;92.30;;;;;;5051938;28;20501;-48
2022/04/20 02:34:21;;;;;;;8.85;5.00;;;7.90;92.10;;;;;;5051768;28;20036;-49
2022/04/20 02:36:47;;;;;;;9.48;5.15;;;8.00;91.70;;;;;;5061661;28;20039;-48
2022/04/20 02:39:12;;;;;;;10.75;5.30;;;8.00;91.70;;;;;;5071086;28;20043;-51
2022/04/20 02:41:40;;;;;;;9.68;5.53;;;8.00;91.80;;;;;;5052748;28;20036;-48
2022/04/20 02:44:06;;;;;;;9.48;5.53;;;8.00;91.90;;;;;;5070339;28;20460;-48
2022/04/20 02:46:32;;;;;;;8.90;5.05;;;8.00;92.10;;;;;;5060603;28;20072;-48
2022/04/20 02:48:57;;;;;;;10.55;5.40;;;8.00;91.90;;;;;;5033575;28;20551;-48
2022/04/20 02:51:23;;;;;;;9.48;5.20;;;7.90;92.00;;;;;;5060520;28;20062;-48
2022/04/20 02:53:48;;;;;;;11.90;5.40;;;7.80;92.30;;;;;;5052830;28;20044;-48
2022/04/20 02:56:14;;;;;;;10.40;5.38;;;7.80;92.20;;;;;;5055748;28;20087;-49
2022/04/20 02:58:39;;;;;;;7.90;4.85;;;7.70;92.60;;;;;;5037116;28;20102;-50
2022/04/20 03:01:06;;;;;;;10.55;5.53;;;7.80;92.60;;;;;;5056024;28;20378;-48
2022/04/20 03:03:32;;;;;;;7.72;4.95;;;7.70;92.50;;;;;;5056503;28;20115;-49
2022/04/20 03:05:57;;;;;;;10.68;5.78;;;7.60;92.90;;;;;;5071160;28;20032;-49
2022/04/20 03:08:24;;;;;;;9.18;5.45;;;7.50;93.30;;;;;;5070045;28;20390;-52
2022/04/20 03:10:51;;;;;;;9.80;6.03;;;7.40;93.40;;;;;;5070388;28;20539;-48
2022/04/20 03:13:17;;;;;;;9.82;5.53;;;7.40;93.70;;;;;;5054309;28;20052;-48
2022/04/20 03:15:42;;;;;;;8.30;5.57;;;7.30;93.80;;;;;;5041954;28;20040;-48
2022/04/20 03:18:09;;;;;;;10.32;5.75;;;7.30;94.00;;;;;;5068979;28;20037;-48
2022/04/20 03:20:34;;;;;;;10.23;5.55;;;7.30;94.00;;;;;;5062278;28;20563;-48
2022/04/20 03:23:00;;;;;;;9.40;5.75;;;7.30;94.60;;;;;;5064880;28;20083;-48
2022/04/20 03:25:25;;;;;;;10.10;5.97;;;7.20;94.20;;;;;;5045120;28;20080;-48
2022/04/20 03:27:51;;;;;;;10.73;5.80;;;7.30;94.40;;;;;;5053252;28;20631;-48
2022/04/20 03:30:16;;;;;;;11.70;5.43;;;7.30;94.50;;;;;;5070998;28;20133;-48
2022/04/20 03:32:42;;;;;;;11.05;5.95;;;7.20;94.70;;;;;;5079865;22;20179;-51
2022/04/20 03:35:08;;;;;;;9.68;5.55;;;7.10;94.80;;;;;;5038102;28;20045;-51
2022/04/20 03:37:34;;;;;;;9.65;5.47;;;7.10;94.80;;;;;;5049834;28;20396;-49
2022/04/20 03:39:59;;;;;;;11.20;6.28;;;7.10;94.90;;;;;;5016515;28;20044;-51
2022/04/20 03:42:26;;;;;;;9.30;6.07;;;6.90;95.10;;;;;;5050133;28;20040;-51
2022/04/20 03:44:52;;;;;;;11.77;5.93;;;7.00;95.50;;;;;;5015565;28;20124;-51
2022/04/20 03:47:18;;;;;;;10.43;5.72;;;7.00;95.30;;;;;;5044211;28;20471;-49
2022/04/20 03:49:43;;;;;;;9.93;5.22;;;6.90;95.50;;;;;;5015522;28;20056;-51
2022/04/20 03:52:09;;;;;;;11.00;6.25;;;6.90;95.70;;;;;;5049606;28;20048;-51
2022/04/20 03:54:35;;;;;;;12.05;5.75;;;6.90;95.80;;;;;;5042583;28;20041;-49
2022/04/20 03:57:04;;;;;;;10.75;6.10;;;6.90;95.80;;;;;;5049077;28;20044;-50
2022/04/20 03:59:34;;;;;;;8.43;5.53;;;7.00;95.40;;;;;;5019176;28;20526;-51
2022/04/20 04:02:00;;;;;;;13.80;5.93;;;6.90;95.50;;;;;;5054158;28;20044;-51
2022/04/20 04:04:26;;;;;;;10.20;5.75;;;7.00;95.50;;;;;;5053690;28;20028;-51
2022/04/20 04:06:52;;;;;;;8.30;5.30;;;6.90;95.40;;;;;;5053028;28;20062;-48
2022/04/20 04:09:18;;;;;;;8.85;5.78;;;7.00;95.20;;;;;;5045919;28;20409;-51
2022/04/20 04:11:43;;;;;;;9.27;5.78;;;7.00;95.50;;;;;;5037950;28;20528;-51
2022/04/20 04:14:09;;;;;;;10.18;5.78;;;7.00;95.30;;;;;;5034429;28;20405;-50
2022/04/20 04:16:38;;;;;;;13.45;6.10;;;6.90;95.60;;;;;;5034193;28;20455;-50
2022/04/20 04:19:04;;;;;;;9.95;6.25;;;6.80;95.80;;;;;;5036932;28;20037;-47
2022/04/20 04:21:32;;;;;;;9.57;5.97;;;6.80;95.70;;;;;;5052479;28;20099;-47
2022/04/20 04:23:58;;;;;;;12.77;5.57;;;6.80;95.80;;;;;;5051556;28;20421;-50
2022/04/20 04:26:23;;;;;;;9.75;6.00;;;6.70;96.00;;;;;;5053612;28;20049;-49
2022/04/20 04:28:49;;;;;;;10.27;5.72;;;6.70;96.20;;;;;;5054018;28;20147;-49
2022/04/20 04:31:15;;;;;;;12.68;6.80;;;6.70;96.00;;;;;;5053654;28;20416;-51
2022/04/20 04:33:40;;;;;;;10.40;5.70;;;6.70;96.20;;;;;;5054161;28;20134;-51
2022/04/20 04:36:07;;;;;;;10.23;5.80;;;6.70;95.90;;;;;;5018707;28;20044;-49
2022/04/20 04:38:33;;;;;;;14.82;6.00;;;6.70;96.30;;;;;;5039674;28;20044;-50
2022/04/20 04:40:59;;;;;;;9.38;5.72;;;6.70;96.20;;;;;;5053699;28;20033;-51
2022/04/20 04:43:25;;;;;;;9.77;6.15;;;6.70;96.50;;;;;;5053063;28;20037;-49
2022/04/20 04:48:39;;;;;;;16.40;6.03;;;6.70;96.50;;;;;;5053919;28;20463;-51
2022/04/20 04:51:05;;;;;;;9.98;6.50;;;6.60;96.30;;;;;;5046461;28;20418;-51
2022/04/20 04:53:31;;;;;;;13.65;6.60;;;6.60;96.40;;;;;;5042664;28;20046;-51
2022/04/20 04:55:56;;;;;;;12.63;6.35;;;6.70;96.10;;;;;;5033404;28;20048;-51
2022/04/20 04:58:22;;;;;;;12.27;6.20;;;6.60;96.40;;;;;;5046586;28;20467;-49
2022/04/20 05:00:48;;;;;;;10.77;5.68;;;6.70;96.10;;;;;;5049259;28;20032;-51
2022/04/20 05:03:17;;;;;;;9.30;5.80;;;6.70;96.20;;;;;;5052083;28;20040;-50
2022/04/20 05:05:46;;;;;;;10.50;5.57;;;6.70;96.50;;;;;;5033740;28;20033;-51
2022/04/20 05:08:12;;;;;;;11.48;6.03;;;6.70;96.40;;;;;;5050974;28;20404;-48
2022/04/20 05:10:38;;;;;;;13.00;6.78;;;6.70;96.30;;;;;;5051519;28;20044;-51
2022/04/20 05:13:05;;;;;;;10.48;6.10;;;6.70;96.50;;;;;;5052246;28;20458;-50
2022/04/20 05:15:30;;;;;;;9.35;6.30;;;6.60;96.70;;;;;;5052847;28;20045;-51
2022/04/20 05:17:56;;;;;;;14.27;6.63;;;6.70;96.50;;;;;;5045390;28;20136;-48
2022/04/20 05:20:22;;;;;;;11.48;6.38;;;6.70;96.80;;;;;;5048890;28;20064;-51
2022/04/20 05:22:48;;;;;;;11.60;6.35;;;6.70;96.80;;;;;;5051271;28;20028;-51
2022/04/20 05:25:14;;;;;;;12.63;6.97;;;6.80;96.50;;;;;;5047908;28;20045;-47
2022/04/20 05:27:39;;;;;;;14.60;6.28;;;6.80;96.60;;;;;;5052197;28;20062;-49
2022/04/20 05:30:07;;;;;;;13.00;7.15;;;6.80;96.80;;;;;;5050912;28;20037;-48
2022/04/20 05:32:33;;;;;;;10.48;5.90;;;6.80;96.90;;;;;;5052425;28;20037;-49
2022/04/20 05:34:59;;;;;;;10.90;6.47;;;6.80;96.70;;;;;;5048434;28;20037;-52
2022/04/20 05:42:53;;;;;;;13.88;6.40;;;7.00;96.30;;;;;;5047346;28;20789;-51
2022/04/20 05:45:19;;;;;;;10.13;6.10;;;6.90;96.70;;;;;;5048159;28;20072;-51
2022/04/20 05:47:46;;;;;;;11.55;6.28;;;6.90;96.80;;;;;;5049348;28;20135;-52
2022/04/20 05:50:12;;;;;;;12.90;6.18;;;7.00;96.50;;;;;;5051411;28;20043;-51
2022/04/20 05:52:38;;;;;;;9.80;5.90;;;7.10;96.70;;;;;;5048790;28;20116;-52
2022/04/20 05:55:04;;;;;;;9.50;6.25;;;7.30;96.30;;;;;;5051146;28;20548;-52
2022/04/20 05:57:30;;;;;;;13.70;6.28;;;7.60;95.60;;;;;;5049207;28;20144;-51
2022/04/20 05:59:56;;;;;;;10.70;6.05;;;7.70;94.90;;;;;;5050765;28;20033;-52
2022/04/20 06:02:22;;;;;;;14.48;6.68;;;7.90;94.60;;;;;;5050696;28;20069;-50
2022/04/20 06:04:47;;;;;;;10.20;5.72;;;8.30;93.70;;;;;;5051068;28;20072;-52
2022/04/20 06:07:13;;;;;;;10.98;6.13;;;8.60;93.00;;;;;;5016517;28;20389;-52
2022/04/20 06:09:40;;;;;;;11.13;5.90;;;8.90;92.30;;;;;;5031944;28;20381;-52
2022/04/20 06:12:07;;;;;;;11.70;5.53;;;9.00;91.90;;;;;;5048724;28;20041;-52
2022/04/20 06:14:33;;;;;;;9.93;6.15;;;9.10;91.50;;;;;;5049993;28;20052;-52
2022/04/20 06:16:58;;;;;;;11.88;6.53;;;9.10;91.50;;;;;;5050295;28;20033;-50
2022/04/20 06:19:24;;;;;;;9.40;5.80;;;9.10;91.60;;;;;;5049461;28;20036;-52
2022/04/20 06:21:49;;;;;;;9.93;5.95;;;9.40;91.00;;;;;;5031336;28;20044;-52
2022/04/20 06:24:15;;;;;;;12.82;6.22;;;9.40;90.50;;;;;;5050174;28;20116;-48
2022/04/20 06:26:41;;;;;;;10.43;6.10;;;9.40;90.80;;;;;;5047834;28;20105;-48
2022/04/20 06:29:06;;;;;;;12.63;5.85;;;9.30;91.10;;;;;;5049264;28;20045;-48
2022/04/20 06:31:32;;;;;;;11.45;5.90;;;9.30;91.30;;;;;;5032247;28;20040;-52
2022/04/20 06:33:59;;;;;;;10.05;6.10;;;9.20;91.60;;;;;;5045449;28;20036;-52
2022/04/20 06:36:25;;;;;;;9.70;5.28;;;9.20;91.40;;;;;;5044139;28;20046;-48
2022/04/20 06:38:51;;;;;;;10.43;5.32;;;9.20;91.30;;;;;;5049080;28;20037;-50
2022/04/20 06:41:17;;;;;;;9.65;5.20;;;9.30;91.10;;;;;;5048931;28;20039;-48
2022/04/20 06:43:43;;;;;;;10.57;4.95;;;9.30;91.00;;;;;;5043347;28;20041;-48
2022/04/20 06:46:09;;;;;;;13.07;5.40;;;9.30;90.00;;;;;;5050618;28;20040;-49
2022/04/20 06:48:34;;;;;;;8.38;5.03;;;9.40;90.50;;;;;;5048142;28;20504;-48
2022/04/20 06:51:03;;;;;;;9.68;5.50;;;9.50;90.30;;;;;;5047221;28;20075;-52
2022/04/20 06:58:57;;;;;;;7.90;4.78;;;9.70;88.30;;;;;;5049848;28;20055;-50
2022/04/20 07:01:23;;;;;;;7.47;4.25;;;9.80;88.30;;;;;;5050256;28;20041;-49
2022/04/20 07:03:49;;;;;;;9.82;4.70;;;9.90;85.40;;;;;;5038377;28;20045;-49
2022/04/20 07:06:14;;;;;;;7.35;4.30;;;9.90;85.40;;;;;;5035162;28;20385;-52
2022/04/20 07:08:40;;;;;;;6.18;3.95;;;10.00;84.40;;;;;;5050197;28;20040;-49
2022/04/20 07:11:06;;;;;;;9.88;4.57;;;10.10;83.80;;;;;;5050981;28;20037;-48
2022/04/20 07:13:33;;;;;;;10.40;4.85;;;10.20;83.80;;;;;;5049415;28;20072;-51
2022/04/20 07:15:58;;;;;;;7.03;3.47;;;10.20;84.00;;;;;;5049548;28;20491;-49
2022/04/20 07:18:24;;;;;;;8.23;4.00;;;10.30;83.60;;;;;;5050271;28;20116;-49
2022/04/20 07:20:50;;;;;;;10.75;4.15;;;10.40;81.70;;;;;;5047325;28;20094;-49
2022/04/20 07:23:16;;;;;;;9.25;4.15;;;10.50;78.90;;;;;;5059381;28;20416;-50
2022/04/20 07:25:42;;;;;;;6.55;3.90;;;10.60;77.70;;;;;;5032128;28;20044;-51
2022/04/20 07:28:09;;;;;;;10.57;5.00;;;10.70;77.90;;;;;;5031140;28;20041;-50
2022/04/20 07:30:40;;;;;;;7.95;4.15;;;10.70;78.40;;;;;;5004807;28;20124;-50
2022/04/20 07:33:06;;;;;;;5.70;3.90;;;10.80;76.80;;;;;;5034727;28;20037;-49
2022/04/20 07:35:32;;;;;;;7.07;4.03;;;10.90;75.20;;;;;;5055076;28;20412;-50
2022/04/20 07:37:57;;;;;;;7.10;3.83;;;11.00;75.40;;;;;;5053434;28;20055;-51
2022/04/20 07:40:23;;;;;;;8.55;3.80;;;11.20;74.40;;;;;;5035648;28;20043;-53
2022/04/20 07:42:55;;;;;;;6.70;3.63;;;11.20;75.20;;;;;;5052513;28;20037;-50
2022/04/20 07:45:25;;;;;;;6.30;3.63;;;11.30;75.40;;;;;;5047771;28;20404;-50
2022/04/20 07:47:55;;;;;;;8.57;3.10;;;11.40;73.00;;;;;;5052543;28;20488;-53
2022/04/20 07:50:25;;;;;;;6.38;3.67;;;11.50;69.90;;;;;;5035190;28;20063;-50
2022/04/20 07:52:54;;;;;;;6.70;3.47;;;11.60;70.80;;;;;;5054330;28;20037;-49
2022/04/20 07:55:24;;;;;;;6.57;2.95;;;11.60;70.50;;;;;;5054357;28;20049;-51
2022/04/20 07:57:51;;;;;;;7.10;3.30;;;11.80;66.60;;;;;;5035580;28;20053;-50
2022/04/20 08:00:18;;;;;;;7.10;3.30;;;11.80;66.60;;;;;;5053128;28;20041;-52
2022/04/20 08:02:44;;;;;;;7.47;2.95;;;11.90;65.60;;;;;;5054220;28;20045;-50
2022/04/20 08:05:13;;;;;;;5.35;3.40;;;12.00;61.60;;;;;;5029715;28;20517;-48
2022/04/20 08:07:39;;;;;;;6.13;2.80;;;12.00;61.40;;;;;;5055247;28;20579;-48
2022/04/20 08:10:06;;;;;;;5.35;2.92;;;12.00;60.70;;;;;;5053969;28;20040;-49
2022/04/20 08:12:39;;;;;;;4.45;2.75;;;12.10;59.60;;;;;;5048551;28;20488;-48
2022/04/20 08:15:06;;;;;;;4.40;2.30;;;12.20;59.30;;;;;;5027476;28;20033;-50
2022/04/20 08:17:32;;;;;;;6.10;2.50;;;12.30;56.80;;;;;;5032841;28;20116;-49
2022/04/20 08:19:58;;;;;;;5.55;2.60;;;12.40;56.50;;;;;;5035666;28;20029;-49
2022/04/20 08:22:24;;;;;;;6.80;2.70;;;12.40;56.60;;;;;;5048007;28;20175;-48
2022/04/20 08:24:51;;;;;;;4.28;2.70;;;12.40;58.10;;;;;;5039539;28;20040;-48
2022/04/20 08:27:16;;;;;;;4.70;3.03;;;12.50;58.80;;;;;;5052457;28;20044;-48
2022/04/20 08:29:42;;;;;;;6.68;3.03;;;12.60;59.40;;;;;;5051808;28;20036;-52
2022/04/20 08:32:09;;;;;;;4.32;2.78;;;12.70;58.90;;;;;;5048930;28;20047;-51
2022/04/20 08:34:34;;;;;;;5.47;3.10;;;12.80;56.20;;;;;;5019207;28;20124;-51
2022/04/20 08:37:00;;;;;;;5.57;2.72;;;12.90;56.50;;;;;;5049865;28;20167;-52
2022/04/20 08:39:26;;;;;;;4.60;2.90;;;12.90;56.40;;;;;;5049068;28;20048;-51
2022/04/20 08:41:51;;;;;;;6.05;3.25;;;12.90;57.60;;;;;;5051474;28;20036;-51
2022/04/20 08:44:27;;;;;;;6.32;3.13;;;12.90;57.70;;;;;;5049496;28;20045;-50
2022/04/20 08:46:58;;;;;;;4.20;2.50;;;13.00;57.40;;;;;;5040261;28;20037;-48
2022/04/20 08:49:23;;;;;;;4.32;2.70;;;13.10;55.50;;;;;;5052328;28;20131;-51
2022/04/20 08:54:34;;;;;;;4.95;2.92;;;13.20;55.80;;;;;;5052857;28;20060;-50
2022/04/20 08:57:15;;;;;;;5.68;2.90;;;13.20;56.50;;;;;;5050967;28;20037;-52
2022/04/20 08:59:42;;;;;;;5.20;3.08;;;13.30;57.00;;;;;;5046575;28;20033;-48
2022/04/20 09:02:10;;;;;;;6.05;2.90;;;13.30;57.50;;;;;;5051690;28;20068;-50
2022/04/20 09:04:36;;;;;;;5.20;2.90;;;13.50;56.70;;;;;;5035282;28;20037;-51
2022/04/20 09:07:03;;;;;;;6.70;3.10;;;13.50;57.30;;;;;;5053090;28;20056;-48
2022/04/20 09:09:30;;;;;;;8.82;3.22;;;13.50;58.00;;;;;;5052575;28;20123;-49
2022/04/20 09:11:57;;;;;;;6.65;3.50;;;13.60;58.00;;;;;;5044718;28;20405;-53
2022/04/20 09:14:24;;;;;;;9.95;3.25;;;13.70;56.80;;;;;;5052085;28;20049;-50
2022/04/20 09:16:57;;;;;;;7.93;3.38;;;13.80;56.50;;;;;;5033735;28;20166;-48
2022/04/20 09:19:26;;;;;;;5.93;3.15;;;13.90;54.20;;;;;;5034806;28;20571;-48
2022/04/20 09:21:52;;;;;;;5.47;2.80;;;13.90;54.60;;;;;;5017217;28;20040;-48
2022/04/20 09:24:18;;;;;;;6.22;2.60;;;13.90;52.00;;;;;;5045298;28;20163;-49
2022/04/20 09:26:55;;;;;;;4.25;2.30;;;13.90;52.60;;;;;;5051510;28;20111;-48
2022/04/20 09:29:21;;;;;;;5.90;2.53;;;14.00;52.50;;;;;;5055230;28;20051;-48
2022/04/20 09:31:48;;;;;;;4.60;2.65;;;14.10;51.50;;;;;;5070074;22;20049;-55
2022/04/20 09:34:53;;;;;;;6.03;2.60;;;14.10;50.50;;;;;;5070719;28;20052;-55
2022/04/20 09:37:23;;;;;;;4.82;2.75;;;14.20;50.60;;;;;;5062125;28;20421;-55
2022/04/20 09:39:52;;;;;;;5.53;2.80;;;14.20;51.40;;;;;;5072262;28;20041;-53
2022/04/20 09:42:21;;;;;;;5.70;2.80;;;14.20;51.80;;;;;;5052854;28;20040;-52
2022/04/20 09:44:54;;;;;;;4.80;2.55;;;14.30;52.80;;;;;;5050216;28;20037;-52
2022/04/20 09:50:10;;;;;;;4.80;2.53;;;14.50;48.80;;;;;;5070728;28;20051;-54
2022/04/20 09:52:44;;;;;;;5.90;3.00;;;14.60;49.90;;;;;;5068360;28;20044;-54
2022/04/20 09:55:25;;;;;;;5.03;2.90;;;14.60;50.20;;;;;;5068543;28;20044;-54
2022/04/20 09:57:51;;;;;;;7.25;2.42;;;14.60;50.80;;;;;;5070528;28;20036;-54
2022/04/20 10:00:17;;;;;;;6.07;2.50;;;14.70;48.90;;;;;;5070413;28;20122;-54
2022/04/20 10:02:51;;;;;;;4.45;2.53;;;14.70;48.90;;;;;;5069860;28;20392;-54
2022/04/20 10:05:18;;;;;;;4.60;2.15;;;14.70;48.60;;;;;;5069349;28;20411;-54
2022/04/20 10:07:44;;;;;;;6.22;2.45;;;14.80;45.70;;;;;;5071902;28;20048;-54
2022/04/20 10:10:10;;;;;;;7.03;2.70;;;14.70;46.90;;;;;;5072056;28;20071;-53
2022/04/20 10:12:39;;;;;;;5.43;2.78;;;14.60;47.20;;;;;;5071228;28;20040;-54
2022/04/20 10:17:54;;;;;;;4.35;2.65;;;14.70;47.50;;;;;;5065322;28;20100;-54
2022/04/20 10:20:20;;;;;;;5.28;2.50;;;14.80;47.20;;;;;;5071730;28;20028;-54
2022/04/20 10:22:47;;;;;;;3.92;2.80;;;14.80;47.50;;;;;;5070625;28;20044;-54
2022/04/20 10:25:13;;;;;;;5.25;2.60;;;15.00;48.80;;;;;;5071564;28;20581;-53
2022/04/20 10:27:57;;;;;;;4.10;2.50;;;15.10;48.40;;;;;;5067669;28;20066;-54
2022/04/20 10:30:30;;;;;;;5.60;3.00;;;15.10;46.00;;;;;;5068688;28;20323;-54
2022/04/20 10:33:05;;;;;;;5.47;2.63;;;15.20;45.80;;;;;;5062996;28;20048;-54
2022/04/20 10:35:32;;;;;;;6.03;2.83;;;15.20;46.60;;;;;;5060950;28;20051;-54
2022/04/20 10:38:09;;;;;;;4.65;2.47;;;15.20;46.40;;;;;;5050953;28;20044;-54
2022/04/20 10:40:53;;;;;;;3.70;2.20;;;15.30;47.00;;;;;;5051265;28;20515;-54
2022/04/20 10:43:20;;;;;;;4.95;2.90;;;15.40;46.20;;;;;;5060939;28;20396;-54
2022/04/20 10:46:17;;;;;;;7.15;2.78;;;15.40;47.10;;;;;;5067497;28;20491;-53
2022/04/20 10:48:48;;;;;;;4.53;2.80;;;15.40;46.50;;;;;;5062426;28;20559;-54
2022/04/20 10:51:34;;;;;;;4.50;2.22;;;15.40;47.20;;;;;;5070165;28;20500;-54
2022/04/20 10:54:20;;;;;;;3.42;2.30;;;15.60;44.20;;;;;;5065129;28;20115;-54
2022/04/20 10:57:10;;;;;;;4.22;2.30;;;15.50;45.70;;;;;;5050292;28;20044;-54
2022/04/20 10:59:37;;;;;;;4.97;2.42;;;15.40;46.80;;;;;;5043598;28;20386;-54
2022/04/20 11:02:03;;;;;;;3.95;2.05;;;15.40;47.20;;;;;;5061067;28;20048;-54
2022/04/20 11:04:39;;;;;;;4.35;2.53;;;15.60;46.20;;;;;;5069143;28;20480;-53
2022/04/20 11:07:06;;;;;;;3.75;2.53;;;15.60;47.00;;;;;;5058371;28;20404;-56
2022/04/20 11:09:48;;;;;;;4.10;2.40;;;15.60;47.10;;;;;;5073892;28;20044;-54
2022/04/20 11:21:06;;;;;;;5.68;2.80;;;15.80;47.70;;;;;;5055324;28;20123;-54
2022/04/20 11:24:08;;;;;;;6.20;2.97;;;15.90;48.40;;;;;;5064729;28;20557;-53
2022/04/20 11:26:51;;;;;;;5.05;2.45;;;16.00;48.40;;;;;;5073938;28;20059;-53
2022/04/20 11:29:19;;;;;;;6.53;2.92;;;15.90;46.90;;;;;;5066491;28;20036;-53
2022/04/20 11:31:59;;;;;;;6.47;2.88;;;16.00;46.40;;;;;;5049021;28;20301;-53
2022/04/20 11:34:26;;;;;;;5.53;2.72;;;16.00;46.20;;;;;;5066979;28;20537;-52
2022/04/20 11:36:54;;;;;;;5.80;3.08;;;16.00;47.60;;;;;;5066042;28;20028;-53
2022/04/20 11:39:22;;;;;;;4.53;2.88;;;16.10;48.10;;;;;;5067341;28;20056;-53
2022/04/20 11:41:50;;;;;;;5.75;2.55;;;16.20;47.50;;;;;;5069334;28;20029;-54
2022/04/20 11:44:25;;;;;;;6.50;3.20;;;16.30;47.50;;;;;;5066751;28;20075;-52
2022/04/20 11:46:53;;;;;;;4.80;3.10;;;16.30;46.60;;;;;;5065529;28;20096;-53
2022/04/20 11:49:21;;;;;;;8.20;2.60;;;16.30;46.10;;;;;;5073613;28;20492;-51
2022/04/20 11:51:54;;;;;;;5.57;2.88;;;16.40;45.30;;;;;;5073249;28;20055;-53
2022/04/20 11:54:21;;;;;;;7.20;2.90;;;16.20;46.60;;;;;;5056823;28;20045;-52
2022/04/20 11:56:46;;;;;;;5.85;3.13;;;16.30;46.50;;;;;;5069747;28;20089;-51
2022/04/20 11:59:12;;;;;;;6.57;3.03;;;16.30;46.50;;;;;;5073322;28;20044;-51
2022/04/20 12:01:38;;;;;;;5.28;2.60;;;16.40;44.80;;;;;;5060834;28;20040;-51
2022/04/20 12:04:12;;;;;;;3.95;2.88;;;16.30;45.70;;;;;;5072912;28;20528;-54
2022/04/20 12:06:48;;;;;;;3.33;2.50;;;16.40;46.10;;;;;;5055507;28;20045;-54
2022/04/20 12:09:15;;;;;;;6.07;2.97;;;16.30;46.60;;;;;;5073498;28;20401;-53
2022/04/20 12:11:41;;;;;;;3.35;2.55;;;16.40;47.80;;;;;;5054031;28;20036;-55
2022/04/20 12:14:07;;;;;;;3.60;2.50;;;16.50;46.00;;;;;;5069628;28;20074;-52
2022/04/20 12:16:34;;;;;;;5.32;3.00;;;16.60;46.30;;;;;;5048364;28;20616;-51
2022/04/20 12:19:00;;;;;;;8.85;2.63;;;16.70;45.30;;;;;;5071780;28;20578;-53
2022/04/20 12:21:40;;;;;;;4.70;2.80;;;16.70;46.10;;;;;;5063213;28;20037;-51
2022/04/20 12:24:08;;;;;;;4.55;2.72;;;16.80;45.40;;;;;;5068951;28;20044;-51
2022/04/20 12:26:33;;;;;;;3.78;2.80;;;16.80;43.90;;;;;;5072407;28;20438;-51
2022/04/20 12:29:00;;;;;;;4.05;2.72;;;16.80;44.20;;;;;;5073888;28;20040;-54
2022/04/20 12:31:26;;;;;;;3.35;2.50;;;16.80;43.20;;;;;;5056951;28;20412;-52
2022/04/20 12:34:06;;;;;;;3.72;2.40;;;16.70;42.80;;;;;;5073529;28;20033;-54
2022/04/20 12:36:55;;;;;;;3.15;2.20;;;16.70;43.10;;;;;;5042971;28;20044;-53
2022/04/20 12:39:38;;;;;;;4.82;2.42;;;16.70;43.30;;;;;;5072300;28;20484;-51
2022/04/20 12:42:07;;;;;;;4.35;2.28;;;16.80;43.30;;;;;;5049482;28;20550;-51
2022/04/20 12:44:39;;;;;;;3.10;2.10;;;16.80;42.60;;;;;;5057829;28;20099;-54
2022/04/20 12:47:08;;;;;;;5.30;2.00;;;16.90;41.80;;;;;;5067978;28;20133;-53
2022/04/20 12:49:34;;;;;;;5.05;2.30;;;16.90;43.70;;;;;;5068946;28;20044;-56
2022/04/20 12:52:27;;;;;;;3.67;2.10;;;17.10;42.20;;;;;;5061421;28;20052;-55
2022/04/20 12:55:10;;;;;;;5.00;2.33;;;17.00;43.30;;;;;;5059284;28;20098;-55
2022/04/20 13:03:17;;;;;;;3.38;2.13;;;17.10;41.70;;;;;;5072812;28;20110;-54
2022/04/20 13:05:44;;;;;;;7.55;2.50;;;17.10;41.40;;;;;;5072272;28;20048;-53
2022/04/20 13:08:12;;;;;;;7.85;2.03;;;17.10;40.40;;;;;;5054285;28;20048;-53
2022/04/20 13:10:42;;;;;;;7.55;2.15;;;17.00;42.00;;;;;;5070342;28;20045;-53
2022/04/20 13:13:08;;;;;;;3.38;2.13;;;17.10;43.30;;;;;;5060016;28;20324;-54
2022/04/20 13:15:34;;;;;;;3.35;2.17;;;17.20;41.20;;;;;;5062628;28;20032;-54
2022/04/20 13:18:00;;;;;;;2.95;2.22;;;17.30;40.60;;;;;;5071912;28;20028;-54
2022/04/20 13:20:28;;;;;;;2.75;2.30;;;17.30;41.70;;;;;;5036897;28;20167;-55
2022/04/20 13:22:57;;;;;;;3.60;2.08;;;17.30;40.40;;;;;;5061672;28;20483;-51
2022/04/20 13:28:08;;;;;;;4.78;2.20;;;17.20;41.80;;;;;;5062797;28;20048;-51
2022/04/20 13:30:36;;;;;;;4.70;2.40;;;17.30;42.00;;;;;;5061444;28;20051;-54
2022/04/20 13:33:03;;;;;;;5.18;2.17;;;17.40;39.90;;;;;;5037178;28;20036;-53